TimeCST,TemperatureF,Dew PointF,Humidity,Sea Level PressureIn,VisibilityMPH,Wind Direction,Wind SpeedMPH,Gust SpeedMPH,PrecipitationIn,Events,Conditions,WindDirDegrees,DateUTC
12:16 AM,21.7,14.4,73,30.12,10.0,SE,6.9,-,N/A,,Overcast,140,2013-03-03 06:16:00
12:37 AM,22.1,15.3,75,30.11,10.0,ESE,6.9,-,N/A,,Overcast,120,2013-03-03 06:37:00
12:56 AM,22.1,15.4,76,30.11,10.0,East,6.9,-,N/A,,Overcast,100,2013-03-03 06:56:00
1:16 AM,21.7,15.6,77,30.12,10.0,East,4.6,-,N/A,,Overcast,90,2013-03-03 07:16:00
1:56 AM,21.2,14.7,76,30.10,10.0,SSE,4.6,-,N/A,,Overcast,150,2013-03-03 07:56:00
2:17 AM,21.2,14.5,75,30.10,10.0,SE,3.5,-,N/A,,Overcast,140,2013-03-03 08:17:00
2:36 AM,21.2,14.7,76,30.10,10.0,East,4.6,-,N/A,,Overcast,100,2013-03-03 08:36:00
2:56 AM,21.0,14.2,75,30.09,10.0,East,4.6,-,N/A,,Overcast,90,2013-03-03 08:56:00
3:17 AM,20.7,13.6,74,30.09,10.0,East,5.8,-,N/A,,Overcast,100,2013-03-03 09:17:00
3:36 AM,20.5,12.2,70,30.08,10.0,ESE,6.9,-,N/A,,Overcast,120,2013-03-03 09:36:00
3:56 AM,20.1,12.0,71,30.07,10.0,ESE,6.9,-,N/A,,Overcast,120,2013-03-03 09:56:00
4:17 AM,20.1,12.6,73,30.07,10.0,East,6.9,-,N/A,,Overcast,100,2013-03-03 10:17:00
4:36 AM,20.3,12.9,73,30.07,10.0,East,5.8,-,N/A,,Overcast,100,2013-03-03 10:36:00
4:56 AM,20.3,11.7,69,30.07,10.0,ESE,5.8,-,N/A,,Overcast,120,2013-03-03 10:56:00
5:16 AM,20.1,12.0,71,30.07,10.0,ESE,6.9,-,N/A,,Overcast,110,2013-03-03 11:16:00
5:36 AM,19.9,12.0,71,30.07,10.0,ESE,5.8,-,N/A,,Overcast,120,2013-03-03 11:36:00
5:56 AM,20.1,13.1,74,30.07,10.0,East,6.9,-,N/A,,Overcast,100,2013-03-03 11:56:00
6:16 AM,20.1,12.9,74,30.07,10.0,East,6.9,-,N/A,,Overcast,100,2013-03-03 12:16:00
6:36 AM,20.3,13.3,74,30.07,10.0,East,6.9,-,N/A,,Overcast,100,2013-03-03 12:36:00
6:56 AM,20.3,13.5,75,30.07,10.0,ESE,6.9,-,N/A,,Overcast,110,2013-03-03 12:56:00
7:16 AM,20.7,13.6,74,30.07,10.0,ESE,8.1,-,N/A,,Overcast,110,2013-03-03 13:16:00
7:36 AM,20.5,14.0,76,30.07,10.0,ESE,8.1,-,N/A,,Overcast,110,2013-03-03 13:36:00
7:56 AM,20.3,14.0,77,30.07,10.0,East,8.1,-,N/A,,Overcast,100,2013-03-03 13:56:00
8:16 AM,21.0,14.4,75,30.07,10.0,East,9.2,-,N/A,,Mostly Cloudy,100,2013-03-03 14:16:00
8:36 AM,21.9,14.0,72,30.06,10.0,East,8.1,-,N/A,,Mostly Cloudy,100,2013-03-03 14:36:00
9:16 AM,23.0,14.4,70,30.05,10.0,East,10.4,-,N/A,,Mostly Cloudy,100,2013-03-03 15:16:00
9:36 AM,23.9,14.9,69,30.04,10.0,East,11.5,-,N/A,,Scattered Clouds,100,2013-03-03 15:36:00
9:56 AM,25.0,16.0,69,30.04,10.0,East,10.4,-,N/A,,Clear,100,2013-03-03 15:56:00
10:16 AM,25.7,16.5,68,30.04,10.0,East,11.5,-,N/A,,Clear,100,2013-03-03 16:16:00
10:36 AM,26.6,17.1,67,30.04,10.0,East,12.7,-,N/A,,Clear,100,2013-03-03 16:36:00
10:56 AM,27.7,17.8,66,30.04,10.0,East,12.7,-,N/A,,Clear,100,2013-03-03 16:56:00
11:16 AM,29.1,18.3,64,30.03,10.0,East,12.7,-,N/A,,Scattered Clouds,100,2013-03-03 17:16:00
11:36 AM,29.1,17.2,61,30.03,10.0,East,15.0,-,N/A,,Clear,100,2013-03-03 17:36:00
11:57 AM,29.8,15.4,55,30.03,10.0,East,15.0,-,N/A,,Clear,100,2013-03-03 17:57:00
12:16 PM,30.2,14.2,51,30.02,10.0,ESE,16.1,-,N/A,,Clear,110,2013-03-03 18:16:00
12:36 PM,30.9,13.8,49,30.01,10.0,ESE,15.0,-,N/A,,Clear,110,2013-03-03 18:36:00
12:57 PM,32.0,14.5,49,30.00,10.0,ESE,16.1,-,N/A,,Scattered Clouds,110,2013-03-03 18:57:00
1:16 PM,32.0,15.3,50,30.00,10.0,ESE,15.0,-,N/A,,Clear,110,2013-03-03 19:16:00
1:57 PM,32.0,16.9,54,29.97,10.0,ESE,13.8,-,N/A,,Clear,110,2013-03-03 19:57:00
2:16 PM,32.0,18.0,56,29.97,10.0,East,13.8,-,N/A,,Clear,100,2013-03-03 20:16:00
2:36 PM,32.0,17.1,54,29.96,10.0,ESE,15.0,-,N/A,,Clear,110,2013-03-03 20:36:00
2:56 PM,32.0,16.0,52,29.96,10.0,ESE,10.4,-,N/A,,Clear,110,2013-03-03 20:56:00
3:16 PM,32.0,15.3,50,29.96,10.0,ESE,12.7,-,N/A,,Clear,110,2013-03-03 21:16:00
3:36 PM,31.8,18.1,57,29.96,10.0,East,9.2,-,N/A,,Clear,100,2013-03-03 21:36:00
4:16 PM,31.6,17.6,56,29.95,10.0,ESE,12.7,-,N/A,,Clear,110,2013-03-03 22:16:00
4:36 PM,30.9,19.2,62,29.95,10.0,East,12.7,-,N/A,,Clear,100,2013-03-03 22:36:00
4:57 PM,29.3,19.4,67,29.95,10.0,East,10.4,-,N/A,,Clear,100,2013-03-03 22:57:00
5:16 PM,27.9,19.9,72,29.95,10.0,East,10.4,-,N/A,,Clear,100,2013-03-03 23:16:00
5:36 PM,27.3,18.3,69,29.95,10.0,East,9.2,-,N/A,,Clear,100,2013-03-03 23:36:00
5:56 PM,26.6,18.0,70,29.94,10.0,East,9.2,-,N/A,,Scattered Clouds,100,2013-03-03 23:56:00
6:36 PM,26.6,16.7,66,29.95,10.0,East,10.4,-,N/A,,Overcast,100,2013-03-04 00:36:00
6:56 PM,27.3,14.9,60,29.95,10.0,East,11.5,-,N/A,,Mostly Cloudy,100,2013-03-04 00:56:00
7:16 PM,27.1,14.9,60,29.95,10.0,East,11.5,18.4,N/A,,Scattered Clouds,100,2013-03-04 01:16:00
7:36 PM,26.6,15.3,62,29.95,10.0,East,13.8,18.4,N/A,,Scattered Clouds,100,2013-03-04 01:36:00
7:56 PM,26.2,16.0,65,29.95,10.0,East,13.8,-,N/A,,Mostly Cloudy,100,2013-03-04 01:56:00
8:16 PM,26.4,17.1,68,29.95,10.0,East,12.7,-,N/A,,Scattered Clouds,100,2013-03-04 02:16:00
8:36 PM,26.6,17.4,68,29.95,10.0,East,13.8,-,N/A,,Mostly Cloudy,100,2013-03-04 02:36:00
8:56 PM,26.4,17.6,69,29.95,10.0,East,13.8,-,N/A,,Overcast,100,2013-03-04 02:56:00
9:16 PM,26.6,17.8,69,29.94,10.0,East,13.8,-,N/A,,Overcast,100,2013-03-04 03:16:00
9:37 PM,26.6,17.6,69,29.94,10.0,East,13.8,-,N/A,,Overcast,100,2013-03-04 03:37:00
9:56 PM,26.8,16.3,65,29.93,10.0,ESE,13.8,-,N/A,,Overcast,110,2013-03-04 03:56:00
10:16 PM,26.6,16.2,65,29.94,10.0,ESE,11.5,-,N/A,,Overcast,110,2013-03-04 04:16:00
10:37 PM,27.1,14.4,59,29.93,10.0,ESE,12.7,-,N/A,,Overcast,120,2013-03-04 04:37:00
10:56 PM,26.8,14.9,61,29.94,10.0,ESE,10.4,-,N/A,,Overcast,110,2013-03-04 04:56:00
11:16 PM,26.6,14.4,60,29.95,10.0,ESE,9.2,-,N/A,,Overcast,110,2013-03-04 05:16:00
11:37 PM,27.1,13.3,56,29.95,10.0,SE,6.9,-,N/A,,Overcast,130,2013-03-04 05:37:00
11:56 PM,27.0,14.5,60,29.95,10.0,SE,6.9,-,N/A,,Overcast,140,2013-03-04 05:56:00